createdAt,value
2022-12-27T00:00:54.791Z,21.60
2022-12-27T00:03:22.717Z,20.15
2022-12-27T00:05:50.188Z,18.35
2022-12-27T00:08:17.599Z,18.83
2022-12-27T00:10:45.400Z,18.25
2022-12-27T00:13:12.898Z,15.98
2022-12-27T00:15:40.268Z,17.83
2022-12-27T00:18:07.984Z,15.40
2022-12-27T00:20:35.390Z,16.27
2022-12-27T00:23:03.401Z,16.75
2022-12-27T00:25:31.451Z,17.40
2022-12-27T00:27:58.817Z,17.17
2022-12-27T00:30:26.231Z,16.67
2022-12-27T00:32:54.111Z,15.20
2022-12-27T00:35:21.480Z,14.65
2022-12-27T00:37:48.866Z,14.20
2022-12-27T00:40:16.615Z,13.20
2022-12-27T00:42:44.039Z,11.35
2022-12-27T00:45:11.906Z,9.77
2022-12-27T00:47:40.285Z,9.57
2022-12-27T00:50:07.914Z,10.25
2022-12-27T00:52:35.294Z,7.90
2022-12-27T00:55:03.321Z,6.75
2022-12-27T00:57:30.765Z,5.30
2022-12-27T00:59:58.182Z,5.25
2022-12-27T01:02:26.124Z,3.78
2022-12-27T01:04:54.651Z,3.17
2022-12-27T01:07:22.037Z,2.83
2022-12-27T01:09:49.917Z,2.70
2022-12-27T01:12:17.313Z,2.45
2022-12-27T01:14:44.960Z,2.80
2022-12-27T01:17:12.656Z,2.50
2022-12-27T01:19:40.092Z,2.45
2022-12-27T01:22:07.697Z,2.58
2022-12-27T01:24:35.387Z,1.00
2022-12-27T01:27:02.801Z,1.45
2022-12-27T01:29:30.221Z,1.42
2022-12-27T01:31:57.888Z,2.00
2022-12-27T01:34:26.234Z,2.00
2022-12-27T01:36:53.695Z,1.50
2022-12-27T01:39:21.485Z,2.15
2022-12-27T01:42:07.956Z,1.30
2022-12-27T01:44:39.032Z,1.25
2022-12-27T01:47:12.504Z,1.60
2022-12-27T01:49:50.638Z,1.45
2022-12-27T01:52:18.249Z,2.20
2022-12-27T01:54:46.515Z,2.22
2022-12-27T01:57:13.996Z,2.30
2022-12-27T01:59:41.706Z,3.15
2022-12-27T02:02:09.782Z,3.12
2022-12-27T02:04:37.578Z,3.53
2022-12-27T02:07:05.533Z,4.20
2022-12-27T02:09:40.843Z,4.20
2022-12-27T02:12:09.701Z,4.15
2022-12-27T02:14:49.172Z,4.28
2022-12-27T02:17:20.140Z,4.57
2022-12-27T02:20:18.047Z,3.95
2022-12-27T02:23:07.528Z,3.45
2022-12-27T02:25:41.016Z,4.03
2022-12-27T02:28:32.901Z,3.53
2022-12-27T02:31:06.424Z,3.97
2022-12-27T02:33:37.346Z,4.50
2022-12-27T02:36:07.601Z,4.55
2022-12-27T02:38:43.097Z,5.25
2022-12-27T02:41:30.599Z,4.90
2022-12-27T02:44:16.785Z,5.18
2022-12-27T02:47:02.758Z,5.97
2022-12-27T02:49:54.817Z,5.90
2022-12-27T02:52:40.808Z,6.30
2022-12-27T02:55:23.475Z,6.22
2022-12-27T02:58:28.659Z,7.18
2022-12-27T03:01:31.084Z,7.25
2022-12-27T03:04:04.272Z,7.78
2022-12-27T03:07:01.044Z,7.12
2022-12-27T03:09:53.912Z,7.18
2022-12-27T03:13:02.120Z,6.93
2022-12-27T03:15:54.056Z,6.55
2022-12-27T03:18:37.917Z,5.45
2022-12-27T03:21:25.545Z,5.15
2022-12-27T03:24:14.614Z,5.03
2022-12-27T03:26:47.662Z,5.28
2022-12-27T03:29:36.770Z,4.95
2022-12-27T03:32:27.318Z,5.32
2022-12-27T03:35:11.087Z,5.50
2022-12-27T03:37:59.612Z,4.72
2022-12-27T03:40:30.147Z,5.18
2022-12-27T03:43:12.304Z,4.68
2022-12-27T03:46:14.009Z,4.95
2022-12-27T03:48:54.030Z,5.35
2022-12-27T03:51:23.874Z,5.43
2022-12-27T03:53:55.069Z,5.37
2022-12-27T03:56:22.856Z,5.97
2022-12-27T03:58:51.586Z,5.70
2022-12-27T04:01:19.108Z,5.03
2022-12-27T04:03:46.884Z,5.40
2022-12-27T04:06:14.700Z,5.50
2022-12-27T04:09:00.556Z,5.07
2022-12-27T04:11:46.733Z,5.00
2022-12-27T04:14:32.692Z,4.93
2022-12-27T04:17:19.029Z,4.70
2022-12-27T04:20:05.025Z,4.95
2022-12-27T04:22:52.110Z,5.55
2022-12-27T04:25:37.832Z,5.18
2022-12-27T04:28:24.167Z,4.97
2022-12-27T04:31:10.169Z,5.30
2022-12-27T04:33:56.478Z,5.22
2022-12-27T04:36:23.872Z,5.87
2022-12-27T04:38:51.780Z,5.05
2022-12-27T04:41:37.998Z,5.32
2022-12-27T04:44:24.356Z,5.43
2022-12-27T04:47:10.623Z,5.85
2022-12-27T04:49:57.095Z,4.90
2022-12-27T04:52:43.493Z,4.80
2022-12-27T04:55:17.440Z,5.15
2022-12-27T04:57:44.810Z,6.10
2022-12-27T05:00:32.483Z,6.12
2022-12-27T05:03:01.253Z,5.57
2022-12-27T05:05:29.159Z,5.43
2022-12-27T05:08:16.412Z,5.82
2022-12-27T05:11:02.681Z,4.70
2022-12-27T05:13:48.430Z,5.40
2022-12-27T05:16:16.210Z,5.43
2022-12-27T05:18:43.677Z,4.75
2022-12-27T05:21:11.139Z,5.12
2022-12-27T05:24:03.376Z,4.95
2022-12-27T05:26:33.294Z,4.62
2022-12-27T05:29:01.518Z,4.65
2022-12-27T05:31:29.493Z,4.95
2022-12-27T05:33:57.762Z,4.72
2022-12-27T05:36:26.039Z,4.78
2022-12-27T05:38:53.491Z,4.90
2022-12-27T05:41:20.928Z,4.57
2022-12-27T05:43:48.922Z,4.47
2022-12-27T05:46:21.152Z,4.82
2022-12-27T05:48:49.525Z,4.35
2022-12-27T05:51:21.155Z,4.00
2022-12-27T05:53:49.162Z,5.00
2022-12-27T05:56:18.676Z,4.93
2022-12-27T05:58:46.516Z,4.62
2022-12-27T06:01:16.583Z,3.97
2022-12-27T06:03:44.873Z,4.72
2022-12-27T06:06:13.465Z,4.47
2022-12-27T06:08:40.934Z,4.10
2022-12-27T06:11:13.951Z,4.10
2022-12-27T06:13:42.518Z,3.80
2022-12-27T06:16:12.223Z,3.85
2022-12-27T06:18:41.220Z,4.50
2022-12-27T06:21:11.181Z,3.90
2022-12-27T06:23:40.657Z,3.83
2022-12-27T06:26:10.605Z,4.57
2022-12-27T06:28:38.277Z,3.17
2022-12-27T06:31:06.156Z,2.70
2022-12-27T06:33:33.716Z,2.78
2022-12-27T06:36:06.654Z,2.45
2022-12-27T06:38:34.354Z,2.90
2022-12-27T06:41:07.035Z,2.85
2022-12-27T06:43:35.204Z,3.10
2022-12-27T06:46:05.369Z,2.42
2022-12-27T06:48:33.820Z,3.37
2022-12-27T06:51:04.380Z,3.08
2022-12-27T06:53:31.883Z,3.15
2022-12-27T06:56:07.046Z,3.25
2022-12-27T06:58:35.065Z,3.92
2022-12-27T07:01:20.501Z,3.28
2022-12-27T07:03:53.243Z,3.12
2022-12-27T07:06:21.443Z,3.45
2022-12-27T07:08:50.879Z,2.62
2022-12-27T07:11:19.886Z,2.58
2022-12-27T07:13:49.495Z,2.35
2022-12-27T07:16:19.214Z,2.42
2022-12-27T07:18:49.707Z,2.42
2022-12-27T07:21:20.372Z,1.58
2022-12-27T07:23:48.008Z,1.73
2022-12-27T07:26:20.188Z,1.83
2022-12-27T07:28:48.119Z,1.55
2022-12-27T07:31:17.664Z,1.50
2022-12-27T07:33:45.160Z,1.20
2022-12-27T07:36:14.602Z,1.20
2022-12-27T07:38:42.064Z,1.33
2022-12-27T07:41:10.947Z,1.00
2022-12-27T07:43:38.775Z,0.80
2022-12-27T07:46:08.650Z,1.00
2022-12-27T07:48:36.684Z,1.37
2022-12-27T07:51:04.841Z,0.90
2022-12-27T07:53:32.936Z,1.10
2022-12-27T07:56:06.108Z,1.00
2022-12-27T07:58:41.149Z,1.12
2022-12-27T08:01:10.074Z,0.98
2022-12-27T08:03:38.879Z,1.50
2022-12-27T08:06:07.179Z,0.70
2022-12-27T08:08:40.377Z,0.70
2022-12-27T08:11:08.610Z,1.00
2022-12-27T08:13:36.359Z,0.68
2022-12-27T08:16:04.241Z,0.57
2022-12-27T08:18:32.930Z,0.60
2022-12-27T08:21:00.587Z,1.80
2022-12-27T08:23:28.151Z,0.68
2022-12-27T08:25:55.843Z,0.50
2022-12-27T08:28:23.237Z,0.40
2022-12-27T08:30:50.729Z,0.60
2022-12-27T08:33:19.305Z,0.70
2022-12-27T08:35:54.743Z,0.50
2022-12-27T08:38:22.871Z,0.68
2022-12-27T08:40:50.675Z,0.40
2022-12-27T08:43:18.281Z,0.60
2022-12-27T08:45:45.961Z,0.52
2022-12-27T08:48:13.410Z,0.43
2022-12-27T08:50:40.880Z,0.25
2022-12-27T08:53:10.289Z,0.30
2022-12-27T08:55:37.714Z,0.30
2022-12-27T08:58:12.186Z,0.30
2022-12-27T09:00:43.697Z,0.30
2022-12-27T09:03:11.147Z,0.20
2022-12-27T09:05:41.920Z,0.32
2022-12-27T09:08:11.009Z,0.20
2022-12-27T09:10:39.657Z,0.30
2022-12-27T09:13:07.517Z,0.20
2022-12-27T09:15:35.396Z,0.30
2022-12-27T09:18:03.204Z,0.30
2022-12-27T09:20:31.542Z,0.20
2022-12-27T09:22:59.343Z,0.37
2022-12-27T09:25:27.489Z,0.45
2022-12-27T09:27:55.236Z,0.60
2022-12-27T09:30:22.958Z,0.25
2022-12-27T09:32:50.388Z,0.17
2022-12-27T09:35:17.780Z,0.30
2022-12-27T09:37:45.480Z,0.50
2022-12-27T09:40:16.692Z,0.50
2022-12-27T09:42:59.596Z,0.20
2022-12-27T09:45:46.994Z,0.50
2022-12-27T09:48:31.106Z,0.52
2022-12-27T09:51:14.037Z,0.50
2022-12-27T09:53:46.442Z,0.40
2022-12-27T09:56:21.863Z,0.70
2022-12-27T09:58:50.140Z,0.40
2022-12-27T10:01:32.889Z,0.45
2022-12-27T10:04:01.233Z,0.68
2022-12-27T10:06:31.660Z,0.47
2022-12-27T10:09:43.738Z,0.70
2022-12-27T10:12:14.267Z,0.70
2022-12-27T10:15:20.016Z,0.50
2022-12-27T10:18:06.616Z,0.40
2022-12-27T10:20:58.609Z,0.40
2022-12-27T10:23:29.683Z,0.50
2022-12-27T10:26:03.181Z,0.60
2022-12-27T10:28:43.890Z,0.50
2022-12-27T10:31:15.084Z,0.70
2022-12-27T10:33:44.944Z,0.60
2022-12-27T10:36:21.769Z,0.50
2022-12-27T10:38:49.552Z,0.60
2022-12-27T10:41:32.293Z,0.73
2022-12-27T10:44:00.562Z,0.60
2022-12-27T10:46:33.064Z,0.40
2022-12-27T10:49:20.658Z,0.70
2022-12-27T10:51:51.052Z,0.70
2022-12-27T10:54:31.201Z,0.70
2022-12-27T10:57:18.852Z,0.57
2022-12-27T10:59:46.493Z,1.00
2022-12-27T11:02:19.102Z,0.70
2022-12-27T11:05:00.566Z,0.68
2022-12-27T11:07:33.058Z,0.50
2022-12-27T11:10:16.798Z,0.73
2022-12-27T11:13:06.771Z,0.82
2022-12-27T11:15:36.749Z,1.98
2022-12-27T11:18:11.044Z,1.85
2022-12-27T11:20:43.210Z,1.50
2022-12-27T11:23:14.252Z,1.10
2022-12-27T11:25:55.958Z,0.95
2022-12-27T11:28:40.238Z,0.73
2022-12-27T11:31:11.132Z,0.73
2022-12-27T11:33:48.663Z,1.02
2022-12-27T11:36:26.795Z,0.90
2022-12-27T11:38:54.222Z,0.40
2022-12-27T11:41:31.821Z,1.10
2022-12-27T11:44:08.271Z,0.50
2022-12-27T11:46:59.060Z,0.82
2022-12-27T11:49:34.455Z,0.50
2022-12-27T11:52:35.457Z,0.70
2022-12-27T11:55:02.776Z,1.00
2022-12-27T11:57:49.530Z,0.68
2022-12-27T12:00:19.989Z,0.62
2022-12-27T12:02:57.072Z,0.88
2022-12-27T12:05:55.630Z,2.17
2022-12-27T12:09:02.432Z,0.60
2022-12-27T12:11:55.200Z,0.60
2022-12-27T12:14:38.381Z,0.68
2022-12-27T12:17:46.997Z,0.80
2022-12-27T12:20:50.299Z,0.43
2022-12-27T12:23:50.514Z,0.70
2022-12-27T12:26:20.823Z,0.68
2022-12-27T12:29:19.414Z,0.52
2022-12-27T12:32:11.737Z,1.00
2022-12-27T12:34:57.696Z,0.50
2022-12-27T12:37:52.519Z,0.60
2022-12-27T12:40:38.504Z,0.68
2022-12-27T12:43:13.701Z,0.52
2022-12-27T12:48:20.861Z,0.68
2022-12-27T12:51:25.785Z,2.42
2022-12-27T12:54:17.640Z,1.10
2022-12-27T12:56:48.053Z,4.75
2022-12-27T12:59:46.754Z,1.62
2022-12-27T13:02:48.028Z,2.97
2022-12-27T13:05:24.183Z,0.90
2022-12-27T13:08:28.563Z,0.45
2022-12-27T13:11:14.801Z,0.95
2022-12-27T13:14:01.948Z,1.25
2022-12-27T13:17:02.663Z,0.98
2022-12-27T13:20:00.838Z,2.00
2022-12-27T13:22:47.195Z,0.82
2022-12-27T13:25:17.789Z,0.90
2022-12-27T13:28:00.395Z,0.60
2022-12-27T13:30:45.667Z,1.35
2022-12-27T13:33:45.072Z,0.50
2022-12-27T13:36:24.997Z,1.08
2022-12-27T13:39:30.062Z,0.50
2022-12-27T13:42:25.286Z,0.77
2022-12-27T13:45:08.094Z,0.55
2022-12-27T13:47:54.051Z,0.70
2022-12-27T13:50:24.355Z,0.88
2022-12-27T13:53:04.424Z,0.60
2022-12-27T13:55:55.221Z,0.70
2022-12-27T13:59:00.594Z,0.37
2022-12-27T14:01:28.311Z,0.80
2022-12-27T14:04:14.777Z,0.70
2022-12-27T14:06:44.857Z,1.12
2022-12-27T14:09:24.648Z,1.27
2022-12-27T14:12:35.638Z,0.80
2022-12-27T14:15:06.633Z,0.80
2022-12-27T14:17:52.767Z,0.90
2022-12-27T14:20:27.833Z,0.93
2022-12-27T14:26:02.321Z,0.90
2022-12-27T14:28:48.545Z,0.75
2022-12-27T14:31:28.138Z,1.42
2022-12-27T14:34:25.935Z,0.80
2022-12-27T14:37:11.267Z,1.27
2022-12-27T14:39:41.718Z,1.02
2022-12-27T14:42:24.639Z,1.00
2022-12-27T14:45:20.154Z,1.25
2022-12-27T14:48:06.548Z,1.10
2022-12-27T14:50:48.336Z,1.02
2022-12-27T14:53:48.383Z,1.08
2022-12-27T14:56:27.874Z,1.23
2022-12-27T14:59:10.280Z,1.65
2022-12-27T15:01:56.120Z,1.60
2022-12-27T15:04:50.699Z,1.10
2022-12-27T15:07:50.402Z,1.20
2022-12-27T15:10:33.891Z,1.30
2022-12-27T15:13:20.480Z,2.00
2022-12-27T15:16:15.209Z,1.10
2022-12-27T15:19:08.198Z,1.23
2022-12-27T15:22:02.051Z,5.35
2022-12-27T15:25:06.983Z,2.60
2022-12-27T15:27:43.362Z,2.03
2022-12-27T15:30:21.273Z,1.30
2022-12-27T15:32:57.108Z,1.30
2022-12-27T15:35:40.182Z,1.37
2022-12-27T15:38:14.475Z,1.40
2022-12-27T15:40:54.106Z,1.05
2022-12-27T15:43:52.497Z,2.37
2022-12-27T15:46:23.265Z,1.08
2022-12-27T15:49:13.029Z,1.87
2022-12-27T15:52:01.680Z,1.83
2022-12-27T15:54:48.836Z,4.87
2022-12-27T15:57:47.211Z,1.77
2022-12-27T16:00:15.700Z,2.22
2022-12-27T16:02:49.462Z,2.35
2022-12-27T16:05:19.742Z,1.90
2022-12-27T16:07:49.278Z,1.58
2022-12-27T16:10:36.486Z,2.25
2022-12-27T16:13:13.239Z,2.22
2022-12-27T16:15:44.784Z,4.35
2022-12-27T16:18:21.596Z,5.60
2022-12-27T16:20:57.488Z,5.80
2022-12-27T16:23:27.996Z,7.78
2022-12-27T16:26:07.783Z,8.75
2022-12-27T16:28:37.390Z,6.95
2022-12-27T16:31:11.944Z,7.62
2022-12-27T16:33:41.141Z,7.37
2022-12-27T16:36:35.874Z,2.65
2022-12-27T16:39:28.124Z,5.87
2022-12-27T16:41:58.294Z,2.10
2022-12-27T16:44:30.719Z,1.30
2022-12-27T16:47:23.305Z,1.37
2022-12-27T16:50:17.029Z,4.12
2022-12-27T16:52:53.317Z,3.33
2022-12-27T16:55:45.756Z,5.85
2022-12-27T16:58:33.043Z,2.65
2022-12-27T17:01:22.080Z,2.53
2022-12-27T17:03:49.616Z,0.90
2022-12-27T17:06:34.063Z,0.57
2022-12-27T17:09:10.912Z,0.93
2022-12-27T17:11:43.184Z,3.05
2022-12-27T17:14:26.361Z,1.90
2022-12-27T17:16:57.306Z,1.92
2022-12-27T17:19:33.380Z,0.90
2022-12-27T17:22:03.883Z,1.00
2022-12-27T17:24:31.323Z,0.93
2022-12-27T17:27:10.944Z,1.58
2022-12-27T17:29:38.679Z,2.47
2022-12-27T17:32:08.938Z,2.08
2022-12-27T17:34:41.178Z,5.45
2022-12-27T17:37:28.017Z,7.45
2022-12-27T17:40:05.763Z,7.72
2022-12-27T17:43:05.308Z,7.37
2022-12-27T17:45:35.950Z,10.23
2022-12-27T17:48:34.205Z,7.45
2022-12-27T17:51:06.183Z,8.55
2022-12-27T17:53:52.495Z,8.68
2022-12-27T17:56:40.255Z,3.37
2022-12-27T17:59:10.340Z,3.25
2022-12-27T18:01:47.363Z,4.72
2022-12-27T18:04:18.890Z,5.55
2022-12-27T18:06:46.651Z,8.23
2022-12-27T18:09:31.243Z,8.32
2022-12-27T18:11:59.956Z,10.52
2022-12-27T18:14:30.538Z,10.30
2022-12-27T18:16:58.642Z,13.68
2022-12-27T18:19:31.695Z,15.80
2022-12-27T18:22:02.108Z,17.48
2022-12-27T18:24:32.058Z,18.48
2022-12-27T18:27:02.113Z,17.95
2022-12-27T18:29:30.277Z,15.93
2022-12-27T18:32:04.756Z,16.98
2022-12-27T18:34:34.670Z,17.85
2022-12-27T18:37:07.425Z,16.83
2022-12-27T18:40:00.494Z,13.57
2022-12-27T18:42:41.254Z,17.23
2022-12-27T18:45:19.783Z,18.67
2022-12-27T18:47:53.163Z,18.20
2022-12-27T18:50:24.214Z,17.92
2022-12-27T18:53:04.203Z,19.17
2022-12-27T18:55:32.868Z,18.60
2022-12-27T18:58:20.213Z,17.23
2022-12-27T19:00:55.306Z,16.30
2022-12-27T19:03:26.830Z,15.93
2022-12-27T19:06:01.043Z,9.98
2022-12-27T19:08:37.639Z,9.40
2022-12-27T19:11:06.869Z,6.85
2022-12-27T19:13:48.170Z,8.80
2022-12-27T19:16:22.843Z,13.73
2022-12-27T19:18:54.201Z,5.60
2022-12-27T19:21:36.836Z,3.90
2022-12-27T19:24:24.002Z,4.10
2022-12-27T19:26:52.106Z,5.57
2022-12-27T19:29:23.226Z,8.55
2022-12-27T19:31:56.883Z,7.62
2022-12-27T19:34:26.941Z,8.13
2022-12-27T19:36:55.990Z,7.37
2022-12-27T19:39:26.822Z,5.72
2022-12-27T19:42:00.705Z,5.32
2022-12-27T19:44:32.627Z,4.68
2022-12-27T19:47:00.403Z,4.70
2022-12-27T19:49:44.721Z,5.10
2022-12-27T19:52:19.092Z,5.93
2022-12-27T19:54:47.208Z,2.83
2022-12-27T19:57:15.304Z,1.92
2022-12-27T19:59:43.182Z,3.22
2022-12-27T20:02:18.694Z,5.37
2022-12-27T20:04:47.059Z,3.53
2022-12-27T20:07:20.983Z,3.17
2022-12-27T20:09:49.422Z,3.08
2022-12-27T20:12:18.286Z,3.92
2022-12-27T20:14:47.398Z,14.68
2022-12-27T20:17:17.256Z,9.00
2022-12-27T20:19:45.099Z,5.87
2022-12-27T20:22:13.206Z,6.95
2022-12-27T20:24:41.433Z,7.37
2022-12-27T20:27:09.283Z,7.60
2022-12-27T20:29:37.930Z,5.72
2022-12-27T20:32:06.373Z,7.25
2022-12-27T20:34:34.410Z,5.35
2022-12-27T20:37:02.057Z,4.80
2022-12-27T20:39:29.903Z,4.75
2022-12-27T20:41:57.506Z,6.40
2022-12-27T20:44:25.119Z,10.20
2022-12-27T20:46:53.873Z,4.18
2022-12-27T20:49:21.575Z,5.35
2022-12-27T20:51:49.145Z,6.40
2022-12-27T20:54:17.036Z,5.70
2022-12-27T20:56:44.680Z,8.00
2022-12-27T20:59:12.384Z,6.82
2022-12-27T21:01:40.370Z,6.60
2022-12-27T21:04:09.164Z,6.55
2022-12-27T21:06:36.856Z,6.75
2022-12-27T21:09:05.566Z,6.90
2022-12-27T21:11:33.060Z,6.65
2022-12-27T21:14:02.318Z,9.30
2022-12-27T21:16:32.307Z,6.75
2022-12-27T21:19:03.709Z,6.82
2022-12-27T21:21:33.562Z,7.30
2022-12-27T21:24:01.390Z,6.10
2022-12-27T21:26:31.237Z,6.65
2022-12-27T21:29:00.549Z,8.18
2022-12-27T21:31:29.367Z,16.62
2022-12-27T21:33:58.259Z,23.02
2022-12-27T21:36:27.977Z,22.87
2022-12-27T21:38:55.876Z,15.23
2022-12-27T21:41:26.001Z,13.45
2022-12-27T21:43:54.413Z,13.52
2022-12-27T21:46:27.129Z,13.13
2022-12-27T21:48:59.557Z,16.20
2022-12-27T21:51:27.925Z,16.35
2022-12-27T21:53:56.000Z,17.10
2022-12-27T21:56:23.902Z,13.23
2022-12-27T21:58:51.705Z,16.90
2022-12-27T22:01:24.523Z,16.70
2022-12-27T22:03:53.359Z,12.68
2022-12-27T22:06:26.032Z,14.05
2022-12-27T22:08:56.087Z,11.07
2022-12-27T22:11:24.309Z,9.27
2022-12-27T22:13:51.939Z,8.38
2022-12-27T22:16:22.023Z,7.50
2022-12-27T22:18:49.972Z,7.25
2022-12-27T22:21:20.290Z,6.93
2022-12-27T22:23:50.115Z,6.40
2022-12-27T22:26:21.542Z,5.47
2022-12-27T22:28:49.354Z,6.10
2022-12-27T22:31:22.318Z,6.82
2022-12-27T22:33:50.844Z,6.72
2022-12-27T22:36:21.120Z,5.65
2022-12-27T22:38:50.321Z,6.18
2022-12-27T22:41:21.035Z,5.82
2022-12-27T22:43:53.073Z,5.93
2022-12-27T22:46:21.255Z,6.43
2022-12-27T22:48:50.637Z,6.55
2022-12-27T22:51:22.113Z,5.80
2022-12-27T22:53:50.099Z,5.75
2022-12-27T22:56:19.888Z,5.00
2022-12-27T22:58:47.763Z,5.35
2022-12-27T23:01:30.127Z,5.22
2022-12-27T23:03:59.058Z,5.30
2022-12-27T23:06:28.039Z,5.22
2022-12-27T23:08:55.516Z,5.18
2022-12-27T23:11:28.328Z,4.95
2022-12-27T23:14:01.716Z,5.43
2022-12-27T23:16:36.193Z,4.45
2022-12-27T23:19:04.587Z,4.53
2022-12-27T23:21:32.006Z,4.40
2022-12-27T23:23:59.378Z,4.65
2022-12-27T23:26:27.592Z,5.03
2022-12-27T23:28:55.488Z,4.82
2022-12-27T23:31:23.683Z,5.47
2022-12-27T23:33:51.894Z,4.53
2022-12-27T23:36:19.309Z,4.50
2022-12-27T23:38:47.168Z,5.78
2022-12-27T23:41:17.138Z,4.47
2022-12-27T23:43:54.500Z,4.45
2022-12-27T23:46:24.208Z,4.40
2022-12-27T23:48:52.365Z,5.05
2022-12-27T23:51:20.995Z,5.03
2022-12-27T23:53:48.803Z,3.70
2022-12-27T23:56:18.984Z,3.40
2022-12-27T23:58:47.412Z,3.78
